Time;durP1;ratioP1;P1;durP2;ratioP2;P2;SDS_P1;SDS_P2;PMS_P1;PMS_P2;Temp;Humidity;BMP_temperature;BMP_pressure;BME280_temperature;BME280_humidity;BME280_pressure;Samples;Min_cycle;Max_cycle;Signal;HPM_P1;HPM_P2
2022/05/05 00:01:50;;;;;;;2.22;1.90;;;10.80;99.90;;;;;;4995279;28;20085;-77
2022/05/05 00:04:18;;;;;;;1.63;1.42;;;10.80;99.90;;;;;;4993341;28;20023;-78
2022/05/05 00:06:44;;;;;;;2.13;1.92;;;10.80;99.90;;;;;;4994849;28;20136;-78
2022/05/05 00:09:11;;;;;;;1.80;1.70;;;10.80;99.90;;;;;;5011452;28;20054;-77
2022/05/05 00:14:23;;;;;;;1.98;1.75;;;10.70;99.90;;;;;;4976456;28;20041;-77
2022/05/05 00:16:57;;;;;;;2.22;2.03;;;10.70;99.90;;;;;;4974157;28;20210;-77
2022/05/05 00:19:23;;;;;;;1.88;1.50;;;10.70;99.90;;;;;;4974226;28;20038;-77
2022/05/05 00:21:49;;;;;;;1.92;1.80;;;10.70;99.90;;;;;;4969424;28;20062;-77
2022/05/05 00:24:16;;;;;;;3.40;2.50;;;10.70;99.90;;;;;;4970738;28;20049;-77
2022/05/05 00:26:42;;;;;;;1.83;1.73;;;10.70;99.90;;;;;;4972706;28;20023;-78
2022/05/05 00:29:09;;;;;;;2.47;2.20;;;10.60;99.90;;;;;;4971618;28;20033;-77
2022/05/05 00:31:35;;;;;;;3.00;2.35;;;10.60;99.90;;;;;;4973513;28;20031;-77
2022/05/05 00:34:00;;;;;;;2.60;2.40;;;10.60;99.90;;;;;;4973061;28;20053;-77
2022/05/05 00:36:26;;;;;;;2.72;2.15;;;10.60;99.90;;;;;;4972400;28;20077;-77
2022/05/05 00:38:53;;;;;;;4.53;2.58;;;10.60;99.90;;;;;;4973408;28;20050;-77
2022/05/05 00:41:20;;;;;;;2.97;2.35;;;10.70;99.90;;;;;;4973537;28;20027;-77
2022/05/05 00:43:46;;;;;;;3.33;2.30;;;10.70;99.90;;;;;;4972731;28;20202;-77
2022/05/05 00:46:11;;;;;;;4.07;3.17;;;10.60;99.90;;;;;;4972294;28;20047;-77
2022/05/05 00:48:38;;;;;;;2.58;2.38;;;10.60;99.90;;;;;;4973851;28;20057;-78
2022/05/05 00:51:05;;;;;;;2.90;2.55;;;10.60;99.90;;;;;;4971972;28;20031;-77
2022/05/05 00:53:31;;;;;;;3.17;2.72;;;;;;;;;;4974535;28;20098;-77
2022/05/05 00:56:02;;;;;;;2.05;1.85;;;10.60;99.90;;;;;;4969938;28;20142;-77
2022/05/05 00:58:29;;;;;;;2.95;2.00;;;10.60;99.90;;;;;;4966651;28;20027;-77
2022/05/05 01:00:55;;;;;;;2.80;1.95;;;10.60;99.90;;;;;;4968317;28;20085;-77
2022/05/05 01:03:23;;;;;;;4.93;3.22;;;10.60;99.90;;;;;;4968916;28;20023;-77
2022/05/05 01:05:49;;;;;;;3.17;2.35;;;10.60;99.90;;;;;;4968051;28;20081;-77
2022/05/05 01:08:15;;;;;;;4.25;2.80;;;10.60;99.90;;;;;;4968028;28;20059;-77
2022/05/05 01:10:40;;;;;;;3.47;2.47;;;10.60;99.90;;;;;;4968831;28;20105;-77
2022/05/05 01:13:06;;;;;;;2.88;2.65;;;10.60;99.90;;;;;;4981351;28;20483;-77
2022/05/05 01:15:36;;;;;;;3.17;2.72;;;10.60;99.90;;;;;;4990052;28;20566;-78
2022/05/05 01:18:02;;;;;;;2.65;2.45;;;10.60;99.90;;;;;;4991668;28;20101;-77
2022/05/05 01:20:27;;;;;;;3.88;2.70;;;10.70;99.90;;;;;;4990948;28;20204;-77
2022/05/05 01:22:53;;;;;;;2.83;1.92;;;10.60;99.90;;;;;;5007491;28;20045;-77
2022/05/05 01:28:12;;;;;;;2.97;2.25;;;10.70;99.90;;;;;;4992366;28;20045;-76
2022/05/05 01:30:40;;;;;;;2.58;2.17;;;10.60;99.90;;;;;;4991532;28;20030;-77
2022/05/05 01:33:17;;;;;;;3.42;2.40;;;10.60;99.90;;;;;;4990377;28;20073;-77
2022/05/05 01:35:45;;;;;;;3.40;2.45;;;10.60;99.90;;;;;;4985320;28;20034;-77
2022/05/05 01:38:13;;;;;;;3.03;1.95;;;10.60;99.90;;;;;;4985528;28;20056;-77
2022/05/05 01:40:40;;;;;;;4.22;2.75;;;10.60;99.90;;;;;;4990036;28;20045;-77
2022/05/05 01:43:07;;;;;;;5.07;3.25;;;10.60;99.90;;;;;;4989232;28;20514;-77
2022/05/05 01:45:33;;;;;;;3.88;2.08;;;10.50;99.90;;;;;;4995132;28;20026;-77
2022/05/05 01:47:59;;;;;;;2.83;2.55;;;10.60;99.90;;;;;;4995812;28;20035;-77
2022/05/05 01:50:25;;;;;;;2.63;2.42;;;10.60;99.90;;;;;;4988947;28;20491;-77
2022/05/05 01:52:52;;;;;;;3.22;2.65;;;10.60;99.90;;;;;;4986942;28;20057;-77
2022/05/05 01:55:19;;;;;;;3.13;2.00;;;10.60;99.90;;;;;;4988454;28;20036;-77
2022/05/05 01:57:44;;;;;;;5.15;2.55;;;10.70;99.90;;;;;;4991986;28;20704;-77
2022/05/05 02:00:10;;;;;;;3.10;2.00;;;10.70;99.90;;;;;;4990154;28;20036;-77
2022/05/05 02:02:37;;;;;;;2.00;1.80;;;10.70;99.90;;;;;;4990768;28;20562;-77
2022/05/05 02:05:03;;;;;;;2.50;2.03;;;10.60;99.90;;;;;;4991039;28;20530;-77
2022/05/05 02:07:29;;;;;;;1.80;1.70;;;10.60;99.90;;;;;;4989753;28;20034;-77
2022/05/05 02:09:54;;;;;;;2.50;2.08;;;10.60;99.90;;;;;;4990281;28;20477;-76
2022/05/05 02:12:20;;;;;;;2.30;2.10;;;10.60;99.90;;;;;;4984569;28;20034;-77
2022/05/05 02:14:46;;;;;;;1.83;1.73;;;10.60;99.90;;;;;;4971871;28;20510;-77
2022/05/05 02:17:11;;;;;;;2.17;1.73;;;10.50;99.90;;;;;;4972116;28;20109;-76
2022/05/05 02:19:39;;;;;;;2.55;2.35;;;10.50;99.90;;;;;;4974894;28;20543;-77
2022/05/05 02:22:07;;;;;;;2.72;2.53;;;10.50;99.90;;;;;;4971548;28;20038;-77
2022/05/05 02:24:32;;;;;;;3.95;2.50;;;10.50;99.90;;;;;;4972577;28;20722;-76
2022/05/05 02:26:58;;;;;;;1.70;1.60;;;10.50;99.90;;;;;;4972077;28;20027;-77
2022/05/05 02:29:25;;;;;;;3.42;2.33;;;10.50;99.90;;;;;;4971133;28;20065;-77
2022/05/05 02:31:50;;;;;;;2.10;1.58;;;10.50;99.90;;;;;;4971613;28;20031;-77
2022/05/05 02:34:16;;;;;;;2.08;1.92;;;10.50;99.90;;;;;;4970633;28;20452;-77
2022/05/05 02:39:26;;;;;;;2.58;1.77;;;10.40;99.90;;;;;;4971195;28;20375;-77
2022/05/05 02:41:52;;;;;;;3.13;2.35;;;10.50;99.90;;;;;;4970834;28;20031;-78
2022/05/05 02:44:18;;;;;;;3.10;2.47;;;10.50;99.90;;;;;;4969472;28;20384;-77
2022/05/05 02:46:43;;;;;;;2.90;2.60;;;10.50;99.90;;;;;;4972257;28;20034;-78
2022/05/05 02:49:10;;;;;;;2.97;2.33;;;10.50;99.90;;;;;;4972384;28;20427;-78
2022/05/05 02:51:35;;;;;;;3.45;2.28;;;10.40;99.90;;;;;;4972208;28;20554;-77
2022/05/05 02:56:45;;;;;;;3.65;2.50;;;10.40;99.90;;;;;;4974218;28;20462;-77
2022/05/05 02:59:11;;;;;;;2.42;2.05;;;10.50;99.90;;;;;;4971731;28;20113;-77
2022/05/05 03:01:37;;;;;;;2.22;2.03;;;10.50;99.90;;;;;;4974618;28;20498;-77
2022/05/05 03:04:03;;;;;;;4.95;2.47;;;10.50;99.90;;;;;;4969913;28;20026;-77
2022/05/05 03:06:29;;;;;;;2.67;2.42;;;10.50;99.90;;;;;;4971405;28;20027;-77
2022/05/05 03:08:55;;;;;;;4.07;2.35;;;10.50;99.90;;;;;;4970732;28;20114;-77
2022/05/05 03:11:20;;;;;;;1.95;1.67;;;10.50;99.90;;;;;;4971029;28;20019;-77
2022/05/05 03:13:46;;;;;;;2.80;2.58;;;10.50;99.90;;;;;;4986045;28;20029;-77
2022/05/05 03:16:11;;;;;;;2.10;1.90;;;10.60;99.90;;;;;;4989519;28;20027;-77
2022/05/05 03:18:40;;;;;;;3.33;2.60;;;10.60;99.90;;;;;;4991358;28;20034;-77
2022/05/05 03:21:07;;;;;;;2.55;2.35;;;10.60;99.90;;;;;;4993602;28;20549;-77
2022/05/05 03:23:32;;;;;;;2.35;2.25;;;10.60;99.90;;;;;;4991280;28;20483;-77
2022/05/05 03:25:58;;;;;;;5.07;1.75;;;10.60;99.90;;;;;;4990848;28;20073;-77
2022/05/05 03:28:24;;;;;;;2.33;2.13;;;10.60;99.90;;;;;;4990232;28;20094;-77
2022/05/05 03:30:49;;;;;;;1.45;1.35;;;12.00;99.90;;;;;;4993595;28;20534;-77
2022/05/05 03:33:15;;;;;;;4.53;1.70;;;10.60;99.90;;;;;;4990300;28;20048;-77
2022/05/05 03:35:41;;;;;;;2.13;2.03;;;10.60;99.90;;;;;;5007230;28;20041;-78
2022/05/05 03:38:07;;;;;;;5.85;1.65;;;10.60;99.90;;;;;;4994353;28;20049;-77
2022/05/05 03:40:33;;;;;;;2.30;2.10;;;10.60;99.90;;;;;;4992063;28;20026;-77
2022/05/05 03:43:00;;;;;;;1.88;1.65;;;10.70;99.90;;;;;;4990801;28;20069;-76
2022/05/05 03:45:26;;;;;;;1.90;1.67;;;10.70;99.90;;;;;;4991925;28;20023;-77
2022/05/05 03:47:53;;;;;;;1.50;1.40;;;10.70;99.90;;;;;;4992156;28;20037;-77
2022/05/05 03:50:18;;;;;;;1.70;1.60;;;10.70;99.90;;;;;;4992905;28;20022;-77
2022/05/05 03:52:44;;;;;;;2.35;2.15;;;10.70;99.90;;;;;;4990412;28;20092;-77
2022/05/05 03:55:10;;;;;;;3.47;2.25;;;10.70;99.90;;;;;;4990556;28;20026;-77
2022/05/05 03:57:35;;;;;;;2.47;1.85;;;10.70;99.90;;;;;;5004716;28;20065;-77
2022/05/05 04:00:03;;;;;;;2.67;1.77;;;10.80;99.90;;;;;;4992521;28;20023;-77
2022/05/05 04:02:30;;;;;;;1.70;1.40;;;10.80;99.90;;;;;;4991489;28;20046;-77
2022/05/05 04:04:55;;;;;;;1.92;1.60;;;10.80;99.90;;;;;;4991027;28;20269;-77
2022/05/05 04:07:21;;;;;;;2.50;2.30;;;10.90;99.90;;;;;;4988453;28;20311;-77
2022/05/05 04:09:47;;;;;;;1.67;1.33;;;10.90;99.90;;;;;;5005935;28;20034;-77
2022/05/05 04:12:12;;;;;;;1.55;1.45;;;10.90;99.90;;;;;;4986391;28;20380;-76
2022/05/05 04:14:38;;;;;;;1.60;1.50;;;10.90;99.90;;;;;;4970911;28;20077;-77
2022/05/05 04:17:04;;;;;;;2.35;2.15;;;10.90;99.90;;;;;;4970934;28;20404;-77
2022/05/05 04:19:30;;;;;;;5.55;2.53;;;10.90;99.90;;;;;;4968762;28;20459;-77
2022/05/05 04:21:56;;;;;;;1.90;1.55;;;10.90;99.90;;;;;;4966792;28;20034;-77
2022/05/05 04:24:21;;;;;;;2.90;2.00;;;10.90;99.90;;;;;;4968407;28;20510;-77
2022/05/05 04:26:47;;;;;;;2.22;2.03;;;10.90;99.90;;;;;;4969597;28;20031;-76
2022/05/05 04:29:13;;;;;;;1.40;1.27;;;10.90;99.90;;;;;;4974432;28;20034;-78
2022/05/05 04:31:40;;;;;;;1.20;1.10;;;10.90;99.90;;;;;;4973323;28;20031;-78
2022/05/05 04:34:06;;;;;;;1.83;1.70;;;10.90;99.90;;;;;;4972345;28;20027;-78
2022/05/05 04:36:35;;;;;;;1.67;1.58;;;10.90;99.90;;;;;;4972684;28;20039;-78
2022/05/05 04:39:06;;;;;;;3.30;1.98;;;10.90;99.90;;;;;;4973883;28;20037;-77
2022/05/05 04:41:32;;;;;;;4.13;1.90;;;;;;;;;;4970118;28;20039;-77
2022/05/05 04:43:58;;;;;;;2.50;1.67;;;10.80;99.90;;;;;;4967382;28;20050;-77
2022/05/05 04:46:23;;;;;;;2.22;1.42;;;10.80;99.90;;;;;;4976003;28;20041;-77
2022/05/05 04:48:49;;;;;;;3.80;2.13;;;10.80;99.90;;;;;;4972569;28;20054;-77
2022/05/05 04:51:15;;;;;;;2.05;1.50;;;10.70;99.90;;;;;;4968119;28;20122;-77
2022/05/05 04:53:41;;;;;;;3.78;2.67;;;10.80;99.90;;;;;;4973753;28;20416;-77
2022/05/05 04:56:10;;;;;;;3.17;2.22;;;10.80;99.90;;;;;;4972927;28;20027;-77
2022/05/05 04:58:36;;;;;;;2.70;2.33;;;10.80;99.90;;;;;;4969742;28;20472;-77
2022/05/05 05:01:02;;;;;;;2.58;1.80;;;10.90;99.90;;;;;;4973742;28;20058;-76
2022/05/05 05:03:39;;;;;;;3.53;2.90;;;10.90;99.90;;;;;;4970014;28;20472;-78
2022/05/05 05:06:07;;;;;;;2.65;2.10;;;11.00;99.90;;;;;;4969136;28;20042;-77
2022/05/05 05:08:33;;;;;;;15.95;2.47;;;11.00;99.90;;;;;;4970619;28;20031;-78
2022/05/05 05:10:59;;;;;;;3.13;2.67;;;11.00;99.90;;;;;;4971295;28;20027;-77
2022/05/05 05:13:25;;;;;;;4.15;2.40;;;11.00;99.90;;;;;;4984402;28;20109;-78
2022/05/05 05:15:51;;;;;;;2.58;2.38;;;11.00;99.90;;;;;;4985236;28;20113;-77
2022/05/05 05:18:17;;;;;;;2.25;2.05;;;11.00;99.90;;;;;;4985506;28;20023;-77
2022/05/05 05:20:43;;;;;;;3.42;2.92;;;11.00;99.90;;;;;;4986989;28;20576;-79
2022/05/05 05:23:09;;;;;;;4.28;2.85;;;11.00;99.90;;;;;;4987904;28;20217;-79
2022/05/05 05:25:35;;;;;;;4.13;2.90;;;11.00;99.90;;;;;;4986015;28;20088;-79
2022/05/05 05:28:01;;;;;;;5.45;3.35;;;11.00;99.90;;;;;;4990767;28;20038;-78
2022/05/05 05:30:28;;;;;;;3.97;2.97;;;11.00;99.90;;;;;;4998968;28;20053;-78
2022/05/05 05:32:53;;;;;;;3.95;3.55;;;11.00;99.90;;;;;;4986196;28;20022;-77
2022/05/05 05:35:19;;;;;;;3.42;3.08;;;11.00;99.90;;;;;;4967773;28;20526;-78
2022/05/05 05:37:44;;;;;;;6.18;3.35;;;11.00;99.90;;;;;;4972349;28;20027;-78
2022/05/05 05:40:10;;;;;;;6.22;3.75;;;11.00;99.90;;;;;;4971462;28;20015;-78
2022/05/05 05:42:36;;;;;;;4.32;3.92;;;11.00;99.90;;;;;;4964788;28;20515;-78
2022/05/05 05:45:02;;;;;;;6.00;3.20;;;11.00;99.90;;;;;;4954615;28;20034;-79
2022/05/05 05:47:28;;;;;;;4.95;3.10;;;11.00;99.90;;;;;;4957490;28;20041;-78
2022/05/05 05:49:54;;;;;;;5.97;4.30;;;11.00;99.90;;;;;;4968811;28;20098;-79
2022/05/05 05:52:20;;;;;;;4.57;3.30;;;11.00;99.90;;;;;;4979744;28;20142;-79
2022/05/05 05:54:46;;;;;;;4.90;3.47;;;13.60;99.90;;;;;;4980222;28;20323;-79
2022/05/05 05:57:11;;;;;;;6.70;4.40;;;11.20;99.90;;;;;;4980274;28;20151;-78
2022/05/05 05:59:37;;;;;;;7.15;3.53;;;11.30;99.90;;;;;;4979967;28;20046;-78
2022/05/05 06:04:47;;;;;;;6.93;3.40;;;11.50;99.90;;;;;;4979459;28;20029;-78
2022/05/05 06:07:12;;;;;;;4.22;2.40;;;11.50;99.90;;;;;;4979827;28;20292;-78
2022/05/05 06:09:38;;;;;;;6.20;4.15;;;11.60;99.90;;;;;;4979841;28;20021;-78
2022/05/05 06:12:04;;;;;;;5.30;3.25;;;11.70;99.90;;;;;;4982841;28;20342;-78
2022/05/05 06:14:30;;;;;;;4.05;3.38;;;11.60;99.90;;;;;;5016627;28;20069;-78
2022/05/05 06:16:56;;;;;;;3.47;3.15;;;11.90;99.90;;;;;;4999848;28;20030;-78
2022/05/05 06:19:22;;;;;;;4.07;3.03;;;11.90;99.90;;;;;;4999915;28;20057;-77
2022/05/05 06:21:47;;;;;;;10.95;4.63;;;12.00;99.90;;;;;;5015504;28;20138;-77
2022/05/05 06:24:13;;;;;;;6.05;3.78;;;11.90;99.90;;;;;;5000558;28;20026;-78
2022/05/05 06:26:39;;;;;;;3.55;2.97;;;12.20;99.90;;;;;;5000488;28;20499;-79
2022/05/05 06:29:05;;;;;;;3.10;2.60;;;;;;;;;;5000075;28;20475;-78
2022/05/05 06:31:30;;;;;;;3.90;3.28;;;12.20;99.90;;;;;;4999033;28;20080;-78
2022/05/05 06:33:56;;;;;;;8.30;3.83;;;12.20;99.90;;;;;;4998764;28;20026;-78
2022/05/05 06:36:22;;;;;;;4.35;3.42;;;12.10;99.90;;;;;;5015975;28;20030;-78
2022/05/05 06:38:51;;;;;;;3.90;3.30;;;12.20;99.90;;;;;;4999032;28;20030;-78
2022/05/05 06:41:17;;;;;;;5.43;2.97;;;12.20;99.90;;;;;;4993530;28;20030;-79
2022/05/05 06:43:43;;;;;;;5.45;3.38;;;12.30;99.90;;;;;;5006874;28;20129;-78
2022/05/05 06:46:09;;;;;;;7.18;4.45;;;12.30;99.90;;;;;;4992731;28;20105;-80
2022/05/05 06:48:35;;;;;;;5.22;3.13;;;12.20;99.90;;;;;;4990193;28;20033;-80
2022/05/05 06:51:01;;;;;;;3.42;3.10;;;;;;;;;;4993113;28;20033;-82
2022/05/05 06:53:27;;;;;;;4.65;3.78;;;12.40;99.90;;;;;;4982110;28;20114;-79
2022/05/05 06:55:55;;;;;;;4.50;4.03;;;12.40;99.90;;;;;;4971042;28;20121;-79
2022/05/05 06:58:24;;;;;;;4.72;3.38;;;12.40;99.90;;;;;;4968947;28;20077;-80
2022/05/05 07:03:34;;;;;;;5.72;3.67;;;12.50;99.90;;;;;;4972589;28;19988;-80
2022/05/05 07:06:01;;;;;;;6.20;3.42;;;12.50;99.90;;;;;;4984790;28;20035;-79
2022/05/05 07:08:27;;;;;;;5.90;4.13;;;12.40;99.90;;;;;;4985349;28;20031;-80
2022/05/05 07:10:53;;;;;;;5.72;3.70;;;12.30;99.90;;;;;;4984733;28;20034;-79
2022/05/05 07:13:24;;;;;;;8.65;4.72;;;12.30;99.90;;;;;;4998978;28;20113;-74
2022/05/05 07:15:49;;;;;;;4.05;3.47;;;12.30;99.90;;;;;;4988201;28;20110;-75
2022/05/05 07:18:16;;;;;;;6.22;4.00;;;12.10;99.90;;;;;;4987709;28;20117;-74
2022/05/05 07:20:43;;;;;;;5.85;4.15;;;12.10;99.90;;;;;;4988736;28;20037;-74
2022/05/05 07:23:12;;;;;;;4.82;3.95;;;12.20;99.90;;;;;;4989413;28;20023;-74
2022/05/05 07:25:39;;;;;;;5.25;4.05;;;12.30;99.90;;;;;;4987530;28;20031;-76
2022/05/05 07:28:05;;;;;;;3.88;3.47;;;12.30;99.90;;;;;;4986050;28;20038;-74
2022/05/05 07:30:31;;;;;;;6.03;3.53;;;12.10;99.90;;;;;;4985883;28;20037;-74
2022/05/05 07:32:57;;;;;;;3.88;3.50;;;12.10;99.90;;;;;;4988169;28;20034;-79
2022/05/05 07:35:23;;;;;;;6.68;3.75;;;12.00;99.90;;;;;;4985556;28;20057;-78
2022/05/05 07:37:48;;;;;;;5.53;4.20;;;12.00;99.90;;;;;;4987486;28;20102;-78
2022/05/05 07:40:14;;;;;;;5.90;4.57;;;12.00;99.90;;;;;;4987516;28;20034;-79
2022/05/05 07:42:41;;;;;;;4.00;3.60;;;12.00;99.90;;;;;;4987557;28;20517;-79
2022/05/05 07:45:08;;;;;;;6.60;4.20;;;12.00;99.90;;;;;;4987705;28;20026;-77
2022/05/05 07:47:34;;;;;;;8.95;4.32;;;12.00;99.90;;;;;;4988373;28;20026;-77
2022/05/05 07:50:01;;;;;;;4.15;3.75;;;12.00;99.90;;;;;;4989104;28;20497;-78
2022/05/05 07:52:28;;;;;;;5.22;3.97;;;12.00;99.90;;;;;;4988526;28;20065;-75
2022/05/05 07:54:54;;;;;;;9.75;4.07;;;12.10;99.90;;;;;;4988584;28;20106;-75
2022/05/05 07:57:20;;;;;;;5.93;3.63;;;12.10;99.90;;;;;;5003458;28;20673;-74
2022/05/05 07:59:47;;;;;;;5.10;4.35;;;12.00;99.90;;;;;;4989002;28;20499;-74
2022/05/05 08:02:14;;;;;;;4.95;4.22;;;12.10;99.90;;;;;;4988695;28;20069;-79
2022/05/05 08:04:43;;;;;;;4.28;3.65;;;12.00;99.90;;;;;;4988706;28;20018;-79
2022/05/05 08:07:10;;;;;;;4.15;3.80;;;11.90;99.90;;;;;;4989120;28;20023;-79
2022/05/05 08:09:36;;;;;;;7.05;4.20;;;11.90;99.90;;;;;;4991432;28;20034;-80
2022/05/05 08:12:03;;;;;;;4.85;4.25;;;11.90;99.90;;;;;;4984818;28;20066;-80
2022/05/05 08:14:29;;;;;;;5.90;4.22;;;11.80;99.90;;;;;;4968364;28;20031;-79
2022/05/05 08:16:55;;;;;;;7.70;5.45;;;11.80;99.90;;;;;;4968326;28;20030;-80
2022/05/05 08:19:21;;;;;;;13.55;5.63;;;11.80;99.90;;;;;;4967986;28;20483;-80
2022/05/05 08:21:48;;;;;;;9.02;6.03;;;11.70;99.90;;;;;;4966804;28;20553;-79
2022/05/05 08:29:42;;;;;;;8.32;5.10;;;11.60;99.90;;;;;;4977735;28;20085;-79
2022/05/05 08:32:08;;;;;;;8.00;5.70;;;11.50;99.90;;;;;;4978384;28;20031;-80
2022/05/05 08:34:34;;;;;;;6.82;4.35;;;11.50;99.90;;;;;;4968035;28;20200;-80
2022/05/05 08:37:00;;;;;;;6.38;4.90;;;11.60;99.90;;;;;;4967996;28;20479;-80
2022/05/05 08:39:26;;;;;;;9.38;6.03;;;11.60;99.90;;;;;;4969407;28;20027;-80
2022/05/05 08:41:55;;;;;;;7.10;4.28;;;11.60;99.90;;;;;;4968521;28;20498;-79
2022/05/05 08:44:21;;;;;;;5.90;3.50;;;11.60;99.90;;;;;;4970334;28;20090;-81
2022/05/05 08:46:48;;;;;;;5.47;4.50;;;11.70;99.90;;;;;;4968194;28;20039;-80
2022/05/05 08:49:18;;;;;;;7.00;5.90;;;11.70;99.90;;;;;;4969665;28;20081;-80
2022/05/05 08:51:44;;;;;;;;;;;11.80;99.90;;;;;;4970800;28;20023;-80
2022/05/05 08:54:17;;;;;;;6.53;5.15;;;11.80;99.90;;;;;;4967607;28;19964;-79
2022/05/05 08:56:54;;;;;;;7.93;5.38;;;11.90;99.90;;;;;;4968924;28;20026;-78
2022/05/05 08:59:21;;;;;;;6.03;4.63;;;12.00;99.90;;;;;;4968802;28;20503;-79
2022/05/05 09:01:48;;;;;;;7.40;5.38;;;12.20;99.90;;;;;;4976421;28;20050;-79
2022/05/05 09:04:14;;;;;;;5.13;4.10;;;12.30;99.90;;;;;;4981925;28;20106;-77
2022/05/05 09:06:43;;;;;;;8.55;6.15;;;12.40;99.90;;;;;;4973656;28;20062;-78
2022/05/05 09:09:29;;;;;;;6.72;4.22;;;12.40;99.90;;;;;;4972429;28;20023;-78
2022/05/05 09:12:21;;;;;;;7.70;4.05;;;12.40;99.90;;;;;;4975028;28;20047;-78
2022/05/05 09:14:47;;;;;;;5.40;3.58;;;12.40;99.90;;;;;;4993541;28;20031;-79
2022/05/05 09:17:16;;;;;;;5.38;3.72;;;12.50;99.90;;;;;;4995002;28;20120;-78
2022/05/05 09:19:44;;;;;;;5.40;3.57;;;12.50;99.90;;;;;;4981965;28;20087;-78
2022/05/05 09:22:11;;;;;;;5.40;4.13;;;12.50;99.90;;;;;;4971893;28;20062;-78
2022/05/05 09:24:43;;;;;;;3.90;3.13;;;12.40;99.90;;;;;;4974324;28;20019;-79
2022/05/05 09:27:15;;;;;;;5.78;4.28;;;12.30;99.90;;;;;;4975801;28;20377;-79
2022/05/05 09:29:42;;;;;;;5.03;4.18;;;12.30;99.90;;;;;;4973166;28;20026;-78
2022/05/05 09:32:12;;;;;;;7.95;4.20;;;12.20;99.90;;;;;;4970612;28;20033;-79
2022/05/05 09:34:42;;;;;;;8.27;5.03;;;12.20;99.90;;;;;;4974003;28;20141;-79
2022/05/05 09:37:19;;;;;;;5.45;3.67;;;12.20;99.90;;;;;;4990017;28;20082;-78
2022/05/05 09:39:44;;;;;;;6.10;3.95;;;10.50;99.90;;;;;;4974104;28;20114;-79
2022/05/05 09:42:10;;;;;;;4.45;3.35;;;12.10;99.90;;;;;;4973310;28;20133;-79
2022/05/05 09:44:45;;;;;;;7.13;4.85;;;12.00;99.90;;;;;;4974651;28;20019;-80
2022/05/05 09:47:17;;;;;;;5.82;3.60;;;12.10;99.90;;;;;;4978085;28;20495;-79
2022/05/05 09:49:57;;;;;;;6.47;4.63;;;12.20;99.90;;;;;;4972704;28;20121;-79
2022/05/05 09:57:58;;;;;;;6.80;5.30;;;12.30;99.90;;;;;;4976114;28;20052;-80
2022/05/05 10:05:52;;;;;;;9.70;4.72;;;12.20;99.90;;;;;;4971526;28;20034;-79
2022/05/05 10:08:29;;;;;;;10.35;5.03;;;12.10;99.90;;;;;;4971303;28;20588;-79
2022/05/05 10:10:55;;;;;;;7.43;4.15;;;11.70;99.90;;;;;;4987226;28;20649;-79
2022/05/05 10:13:21;;;;;;;8.18;3.78;;;11.30;99.90;;;;;;4986044;28;20320;-78
2022/05/05 10:15:49;;;;;;;8.18;5.38;;;11.10;99.90;;;;;;4991143;28;20108;-78
2022/05/05 10:18:17;;;;;;;9.18;5.22;;;11.10;99.90;;;;;;4990547;28;20041;-77
2022/05/05 10:20:43;;;;;;;5.28;3.75;;;11.10;99.90;;;;;;4990053;28;20089;-78
2022/05/05 10:23:42;;;;;;;7.85;4.75;;;11.10;99.90;;;;;;4990128;28;20315;-78
2022/05/05 10:26:10;;;;;;;5.70;4.60;;;11.10;99.90;;;;;;4990127;28;20023;-79
2022/05/05 10:28:44;;;;;;;6.80;4.47;;;11.10;99.90;;;;;;4988806;28;20110;-78
2022/05/05 10:31:37;;;;;;;7.30;4.90;;;11.20;99.90;;;;;;4991166;28;20026;-81
2022/05/05 10:34:06;;;;;;;5.78;4.93;;;11.40;99.90;;;;;;4989895;28;20426;-79
2022/05/05 10:36:34;;;;;;;6.47;4.70;;;11.50;99.90;;;;;;4984593;28;20057;-79
2022/05/05 10:39:19;;;;;;;8.75;4.82;;;11.60;99.90;;;;;;4989576;28;20031;-79
2022/05/05 10:41:45;;;;;;;7.82;5.15;;;11.60;99.90;;;;;;4983124;28;20534;-78
2022/05/05 10:44:23;;;;;;;7.78;4.25;;;11.70;99.90;;;;;;4989353;28;20043;-79
2022/05/05 10:47:01;;;;;;;8.35;4.22;;;11.70;99.90;;;;;;4988291;28;20092;-78
2022/05/05 10:49:33;;;;;;;7.95;4.90;;;11.80;99.90;;;;;;4988642;28;20034;-78
2022/05/05 10:52:11;;;;;;;8.63;5.43;;;11.80;99.90;;;;;;4988696;28;20034;-78
2022/05/05 10:54:36;;;;;;;9.18;5.63;;;11.80;99.90;;;;;;4990356;28;20105;-78
2022/05/05 10:57:27;;;;;;;9.15;4.72;;;11.80;99.90;;;;;;4987984;28;20157;-78
2022/05/05 11:00:06;;;;;;;8.38;4.65;;;11.90;99.90;;;;;;4989782;28;20509;-78
2022/05/05 11:02:31;;;;;;;5.90;3.60;;;12.00;99.90;;;;;;4989320;28;20046;-78
2022/05/05 11:05:28;;;;;;;6.20;4.18;;;12.10;99.90;;;;;;4994849;28;20040;-77
2022/05/05 11:08:07;;;;;;;9.27;5.78;;;11.90;99.90;;;;;;4991281;28;20402;-78
2022/05/05 11:10:46;;;;;;;7.55;5.60;;;11.80;99.90;;;;;;4988124;28;20509;-78
2022/05/05 11:13:36;;;;;;;8.27;5.55;;;11.70;99.90;;;;;;4977049;28;20767;-78
2022/05/05 11:22:28;;;;;;;8.35;4.75;;;11.80;99.90;;;;;;4951993;28;20418;-78
2022/05/05 11:24:54;;;;;;;11.48;5.05;;;11.60;99.90;;;;;;4970513;28;20041;-78
2022/05/05 11:27:23;;;;;;;9.27;4.03;;;11.70;99.90;;;;;;4968199;28;20417;-77
2022/05/05 11:29:50;;;;;;;10.63;6.30;;;11.80;99.90;;;;;;4968740;28;20050;-78
2022/05/05 11:32:16;;;;;;;13.38;6.60;;;11.80;99.90;;;;;;4968327;28;20027;-78
2022/05/05 11:34:45;;;;;;;10.63;5.22;;;11.80;99.90;;;;;;4969660;28;20605;-79
2022/05/05 11:37:11;;;;;;;9.80;5.50;;;11.80;99.90;;;;;;4968772;28;20038;-79
2022/05/05 11:39:38;;;;;;;10.38;4.82;;;11.60;99.90;;;;;;4967811;28;20135;-78
2022/05/05 11:42:11;;;;;;;13.25;5.20;;;11.50;99.90;;;;;;4971596;28;20134;-80
2022/05/05 11:44:43;;;;;;;11.48;5.47;;;11.60;99.90;;;;;;4969888;28;20353;-78
2022/05/05 11:47:13;;;;;;;12.65;5.85;;;11.60;99.90;;;;;;4970954;28;20034;-80
2022/05/05 11:49:43;;;;;;;11.30;5.68;;;11.60;99.90;;;;;;4974064;28;20193;-78
2022/05/05 11:52:11;;;;;;;9.95;5.15;;;11.60;99.90;;;;;;4973251;28;20121;-78
2022/05/05 11:54:38;;;;;;;10.77;5.28;;;11.60;99.90;;;;;;4972147;28;20041;-78
2022/05/05 11:57:04;;;;;;;11.63;6.65;;;11.70;99.90;;;;;;4975054;28;20023;-78
2022/05/05 12:02:18;;;;;;;8.90;5.40;;;11.90;99.90;;;;;;4975063;28;20092;-78
2022/05/05 12:04:53;;;;;;;8.23;4.93;;;12.00;99.90;;;;;;4975900;28;20027;-78
2022/05/05 12:07:21;;;;;;;8.52;4.65;;;12.00;99.90;;;;;;4976647;28;20346;-77
2022/05/05 12:10:02;;;;;;;8.38;4.50;;;12.10;99.90;;;;;;4989125;28;20042;-78
2022/05/05 12:12:30;;;;;;;15.93;6.72;;;12.20;99.90;;;;;;4995934;28;20149;-78
2022/05/05 12:15:02;;;;;;;12.02;4.50;;;11.70;99.90;;;;;;4991106;28;20457;-78
2022/05/05 12:17:41;;;;;;;11.23;5.20;;;11.70;99.90;;;;;;4990581;28;20212;-78
2022/05/05 12:20:09;;;;;;;11.68;6.68;;;11.60;99.90;;;;;;4988407;28;20105;-79
2022/05/05 12:22:41;;;;;;;14.30;7.68;;;11.80;99.90;;;;;;4987644;28;20072;-78
2022/05/05 12:25:14;;;;;;;9.48;5.32;;;11.80;99.90;;;;;;4990072;28;20393;-77
2022/05/05 12:28:04;;;;;;;12.93;6.30;;;11.80;99.90;;;;;;4987165;28;20030;-78
2022/05/05 12:30:30;;;;;;;9.60;5.88;;;11.60;99.90;;;;;;4987995;28;20081;-79
2022/05/05 12:32:56;;;;;;;8.57;5.15;;;11.50;99.90;;;;;;4988000;28;20030;-78
2022/05/05 12:35:33;;;;;;;13.20;6.28;;;11.50;99.90;;;;;;4986671;28;20018;-78
2022/05/05 12:38:00;;;;;;;11.93;5.88;;;11.50;99.90;;;;;;4988455;28;20040;-78
2022/05/05 12:40:26;;;;;;;10.65;6.65;;;11.60;99.90;;;;;;4986225;28;20029;-77
2022/05/05 12:42:59;;;;;;;9.18;5.97;;;11.70;99.90;;;;;;4987609;28;20046;-79
2022/05/05 12:45:26;;;;;;;11.23;5.90;;;11.70;99.90;;;;;;4988669;28;20030;-77
2022/05/05 12:47:58;;;;;;;9.05;6.22;;;11.90;99.90;;;;;;4982576;28;20039;-78
2022/05/05 12:50:29;;;;;;;7.85;5.72;;;11.80;99.90;;;;;;4968120;28;20098;-78
2022/05/05 13:01:26;;;;;;;8.20;5.60;;;14.90;99.90;;;;;;4967308;28;20049;-78
2022/05/05 13:03:55;;;;;;;8.13;4.82;;;12.30;99.90;;;;;;4966177;28;20061;-79
2022/05/05 13:06:22;;;;;;;9.95;5.25;;;12.30;99.90;;;;;;4967704;28;20472;-78
2022/05/05 13:08:48;;;;;;;11.82;6.97;;;12.40;99.90;;;;;;4965552;28;20187;-78
2022/05/05 13:11:15;;;;;;;8.77;6.38;;;12.50;99.90;;;;;;4966484;28;20031;-78
2022/05/05 13:13:41;;;;;;;7.53;4.97;;;12.40;99.90;;;;;;4984988;28;20050;-78
2022/05/05 13:16:07;;;;;;;7.28;5.50;;;12.40;99.90;;;;;;4985414;28;20060;-78
2022/05/05 13:18:32;;;;;;;9.30;5.32;;;12.30;99.90;;;;;;4969290;28;20034;-78
2022/05/05 13:20:58;;;;;;;10.82;6.68;;;;;;;;;;5002563;28;20023;-78
2022/05/05 13:23:24;;;;;;;8.65;4.97;;;12.30;99.90;;;;;;4985996;28;20491;-78
2022/05/05 13:25:50;;;;;;;10.27;5.47;;;12.20;99.90;;;;;;4987389;28;20030;-78
2022/05/05 13:28:15;;;;;;;7.95;4.68;;;12.10;99.90;;;;;;4986985;28;20030;-77
2022/05/05 13:30:41;;;;;;;9.00;5.68;;;12.00;99.90;;;;;;5002720;28;20522;-78
2022/05/05 13:33:07;;;;;;;11.20;5.97;;;11.90;99.90;;;;;;4988048;28;20563;-78
2022/05/05 13:35:32;;;;;;;12.07;6.65;;;12.00;99.90;;;;;;4987920;28;20383;-78
2022/05/05 13:37:58;;;;;;;8.57;4.53;;;12.10;99.90;;;;;;4988987;28;20478;-79
2022/05/05 13:40:27;;;;;;;9.98;5.53;;;12.10;99.90;;;;;;5004234;28;20029;-78
2022/05/05 13:42:55;;;;;;;13.23;4.90;;;12.10;99.90;;;;;;4987707;28;20051;-78